• Join FlightAware (Why Join?)
  • Login
  • US Flag 
03:45PM EDT


 

Airport Tracker/Info


-or-


 

Live Flight TrackerFlight Track Log ✈ SBE67 ✈ 06-Sep-2013 ✈ KBTR - KSUS

Flight Track Log - Related Links

Times and Time Zones

All times are in EDT time to prevent confusion due to time zone crossing. See the SBE67 flight status page for this flight to view local times or setup timezone preferences in your user account.

Time Position Orientation Groundspeed Altitude Reporting Facility
EDT Latitude Longitude Course Direction KTS MPH feet Rate Location/Type
10:15AM 30.6492 -91.1217 North 266 306 3,400  Level Houston Center
10:16AM 30.7258 -91.1206 North 232 267 5,700 1,980 Climbing Houston Center
10:17AM 30.7858 -91.1119 North 235 270 7,600 1,800 Climbing Houston Center
10:18AM 30.8519 -91.1111 North 237 273 9,500 1,800 Climbing Houston Center
10:19AM 33.4950 -90.9796 North  Level Estimated
10:19AM 30.9303 -91.1250 351° North 253 291 11,400  Level Houston Center
10:20AM 33.5302 -90.9774 North  Level FlightAware Approximate
10:20AM 30.9950 -91.1519 340° North 249 287 13,200  Level Houston Center
10:21AM 31.0544 -91.1386 11° North 248 285 14,700 1,080 Climbing Houston Center
10:22AM 31.1417 -91.1342 North 259 298 15,500 360 Climbing Houston Center
10:23AM 31.2300 -91.1300 North 304 350 15,500  Level Houston Center
10:24AM 31.3381 -91.1219 North 342 394 15,500  Level Houston Center
10:25AM 31.4408 -91.1164 North 360 414 15,500  Level Houston Center
10:26AM 31.5444 -91.1106 North 370 426 15,500  Level Houston Center
10:27AM 31.6503 -91.1031 North 376 433 15,500  Level Houston Center
10:28AM 31.7742 -91.0967 North 388 447 15,500 120 Level Houston Center
10:29AM 31.8689 -91.0911 North 389 448 15,800 480 Climbing Houston Center
10:30AM 31.9953 -91.0844 North 382 440 16,600 660 Climbing Houston Center
10:32AM 32.0981 -91.0786 North 373 429 17,200 420 Climbing Houston Center
10:33AM 32.2008 -91.0728 North 370 426 17,500 120 Climbing Houston Center
10:34AM 32.3069 -91.0667 North 381 438 17,500  Level Houston Center
10:35AM 32.4156 -91.0597 North 389 448 17,500  Level Houston Center
10:36AM 32.5483 -91.0517 North 397 457 17,500  Level Houston Center
10:37AM 32.6700 -91.0433 North 398 458 17,500  Level Memphis Center
10:38AM 32.7828 -91.0369 North 398 458 17,500  Level Memphis Center
10:39AM 32.8956 -91.0303 North 403 464 17,500  Level Memphis Center
10:40AM 33.0064 -91.0236 North 403 464 17,500  Level Memphis Center
10:41AM 33.1192 -91.0169 North 403 464 17,500  Level Memphis Center
10:42AM 33.2319 -91.0081 North 403 464 17,500  Level Memphis Center
10:43AM 33.3425 -91.0036 North 403 464 17,500  Level Memphis Center
10:44AM 33.4572 -90.9972 North 403 464 17,500  Level Memphis Center
10:45AM 33.5639 -90.9906 North 396 456 17,500  Level Memphis Center
10:46AM 33.6722 -90.9861 North 385 443 17,500  Level Memphis Center
10:47AM 33.7789 -90.9769 North 385 443 17,500  Level Memphis Center
10:48AM 33.8978 -90.9703 North 390 449 17,500  Level Memphis Center
10:49AM 34.0044 -90.9611 North 383 441 17,500  Level Memphis Center
10:50AM 34.1108 -90.9592 North 378 435 17,500  Level Memphis Center
10:51AM 34.2172 -90.9500 North 385 443 17,500  Level Memphis Center
10:52AM 34.3236 -90.9431 North 385 443 17,500  Level Memphis Center
10:53AM 34.4303 -90.9364 North 385 443 17,500  Level Memphis Center
10:54AM 34.5303 -90.9319 North 380 437 17,500  Level Memphis Center
10:55AM 34.6367 -90.9328 360° North 387 445 17,500  Level Memphis Center
10:56AM 34.7325 -90.9889 334° Northwest 376 433 17,500  Level Memphis Center
10:57AM 34.8156 -91.0781 319° Northwest 382 440 17,500  Level Memphis Center
10:58AM 34.8817 -91.1797 308° West 382 440 17,500  Level Memphis Center
10:59AM 34.9581 -91.2919 310° West 387 445 17,500  Level Memphis Center
11:00AM 35.0344 -91.3867 315° West 393 452 17,500  Level Memphis Center
11:01AM 35.1214 -91.4539 328° Northwest 386 444 17,500  Level Memphis Center
11:02AM 35.2297 -91.4706 353° North 366 421 17,500  Level Memphis Center
11:03AM 35.3383 -91.4517 North 366 421 17,500  Level Memphis Center
11:04AM 35.4389 -91.4275 11° North 372 428 17,500  Level Memphis Center
11:05AM 35.5494 -91.4058 North 384 442 17,500  Level Memphis Center
11:06AM 35.6561 -91.3817 10° North 378 435 17,500  Level Memphis Center
11:07AM 35.7564 -91.3597 10° North 377 434 17,500  Level Memphis Center
11:08AM 35.8628 -91.3356 10° North 377 434 17,500  Level Memphis Center
11:09AM 35.9717 -91.3111 10° North 377 434 17,500  Level Memphis Center
11:10AM 36.0739 -91.2789 14° North 382 440 17,500  Level Memphis Center
11:11AM 36.1722 -91.2208 25° Northeast 382 440 17,500  Level Memphis Center
11:12AM 36.2769 -91.1783 18° North 382 440 17,500  Level Memphis Center
11:13AM 36.3853 -91.1561 North 390 449 17,500  Level Memphis Center
11:14AM 36.4731 -91.1389 North 390 449 17,500  Level Memphis Center
11:15AM 36.6044 -91.1092 10° North 390 449 17,500  Level Memphis Center
11:16AM 36.6986 -91.0892 10° North 390 449 17,500  Level Memphis Center
11:18AM 36.9133 -91.0403 10° North 398 458 17,500  Level Kansas City Center
11:19AM 37.0222 -91.0128 11° North 397 457 17,500  Level Kansas City Center
11:20AM 37.1414 -90.9731 15° North 399 459 17,600  Climbing Kansas City Center
11:21AM 37.2511 -90.9556 North 398 458 17,600 -60 Level Kansas City Center
11:22AM 37.3589 -90.9261 12° North 396 456 17,500  Descending Kansas City Center
11:23AM 37.4711 -90.9022 10° North 401 461 17,600  Climbing Kansas City Center
11:24AM 37.5800 -90.8825 North 398 458 17,600  Level Kansas City Center
11:25AM 37.6967 -90.8556 10° North 397 457 17,600  Level Kansas City Center
11:26AM 37.8064 -90.8342 North 398 458 17,600  Level Kansas City Center
11:27AM 37.9147 -90.8128 North 395 455 17,600 -600 Level Kansas City Center
11:28AM 38.0425 -90.7808 11° North 392 451 16,400 -2,280 Descending Kansas City Center
11:29AM 38.1442 -90.7389 18° North 387 445 13,000 -3,120 Descending Kansas City Center
11:30AM 38.2378 -90.7028 17° North 360 414 10,000 -2,760 Descending Kansas City Center
11:31AM 38.3178 -90.6803 12° North 303 349 7,300 -1,980 Descending Kansas City Center
11:32AM 38.3894 -90.6575 14° North 292 336 6,000 -2,160 Descending Kansas City Center
11:33AM 38.4464 -90.6294 21° North 242 278 2,900 -1,920 Descending Kansas City Center
11:34AM 38.5106 -90.6008 19° North 216 249 2,100 -540 Descending Kansas City Center
11:35AM 38.5581 -90.5753 23° Northeast 199 229 1,900 -300 Descending Kansas City Center
11:36AM 38.6031 -90.5517 22° Northeast 186 214 1,600 -300 Descending Kansas City Center
11:37AM 38.6458 -90.5483 North 165 190 1,400 -300 Descending Kansas City Center
11:38AM 38.6706 -90.5781 317° Northwest 153 176 1,100 -360 Descending Kansas City Center
11:40AM 38.6642 -90.6219 259° West 136 157 700 120 Descending Kansas City Center
11:41AM 38.6544 -90.6764 257° West 147 169 1,400 600 Climbing Kansas City Center
11:42AM 38.6119 -90.6517 156° South 204 235 2,000 300 Climbing Kansas City Center
11:43AM 38.6183 -90.5806 83° East 206 237 2,100 -300 Climbing Kansas City Center
11:44AM 38.6564 -90.5625 20° North 189 217 1,500 -600 Descending Kansas City Center
11:45AM 38.6669 -90.6047 288° West 154 177 900 -540 Descending Kansas City Center
11:46AM 38.6592 -90.6544 259° West 141 162 500 -420 Descending Kansas City Center